createdAt,value
2019-06-15T00:02:09.297Z,6.50
2019-06-15T00:04:37.581Z,7.10
2019-06-15T00:07:05.944Z,7.37
2019-06-15T00:09:34.219Z,7.83
2019-06-15T00:12:02.564Z,7.63
2019-06-15T00:14:30.904Z,6.90
2019-06-15T00:16:59.202Z,8.90
2019-06-15T00:19:27.496Z,10.13
2019-06-15T00:21:55.793Z,6.67
2019-06-15T00:24:35.047Z,8.30
2019-06-15T00:26:54.361Z,6.80
2019-06-15T00:29:22.649Z,7.60
2019-06-15T00:31:51.276Z,7.50
2019-06-15T00:34:19.549Z,7.03
2019-06-15T00:36:47.853Z,6.90
2019-06-15T00:39:16.240Z,7.43
2019-06-15T00:41:44.522Z,8.00
2019-06-15T00:44:12.818Z,8.80
2019-06-15T00:46:41.168Z,8.20
2019-06-15T00:49:09.469Z,9.90
2019-06-15T00:51:37.759Z,6.67
2019-06-15T00:54:06.088Z,7.20
2019-06-15T00:56:34.338Z,7.20
2019-06-15T00:59:02.641Z,8.07
2019-06-15T01:01:30.916Z,7.30
2019-06-15T01:03:59.222Z,8.67
2019-06-15T01:06:27.506Z,7.53
2019-06-15T01:08:55.806Z,8.13
2019-06-15T01:11:25.788Z,8.90
2019-06-15T01:13:54.112Z,7.07
2019-06-15T01:16:22.397Z,8.33
2019-06-15T01:18:50.747Z,6.20
2019-06-15T01:21:18.975Z,8.50
2019-06-15T01:23:47.272Z,8.13
2019-06-15T01:26:15.552Z,7.13
2019-06-15T01:28:43.856Z,6.67
2019-06-15T01:31:12.147Z,10.33
2019-06-15T01:33:40.443Z,8.03
2019-06-15T01:36:08.963Z,8.70
2019-06-15T01:38:37.262Z,6.57
2019-06-15T01:41:05.613Z,8.27
2019-06-15T01:43:33.909Z,9.83
2019-06-15T01:46:02.183Z,8.00
2019-06-15T01:48:30.465Z,7.07
2019-06-15T01:50:58.776Z,7.03
2019-06-15T01:53:27.039Z,7.57
2019-06-15T01:55:55.336Z,7.17
2019-06-15T01:58:23.654Z,7.63
2019-06-15T02:00:51.946Z,6.93
2019-06-15T02:03:20.228Z,7.40
2019-06-15T02:05:48.526Z,7.70
2019-06-15T02:08:16.803Z,7.03
2019-06-15T02:10:45.094Z,7.37
2019-06-15T02:13:13.373Z,8.70
2019-06-15T02:15:41.666Z,7.40
2019-06-15T02:18:10.019Z,8.50
2019-06-15T02:20:38.303Z,8.20
2019-06-15T02:23:06.585Z,7.67
2019-06-15T02:25:36.638Z,12.67
2019-06-15T02:28:05.116Z,7.50
2019-06-15T02:30:34.970Z,7.73
2019-06-15T02:33:03.451Z,7.63
2019-06-15T02:35:31.749Z,7.50
2019-06-15T02:38:00.021Z,8.33
2019-06-15T02:40:28.717Z,8.70
2019-06-15T02:42:56.999Z,7.80
2019-06-15T02:45:25.573Z,8.53
2019-06-15T02:47:53.918Z,8.40
2019-06-15T02:50:22.223Z,8.50
2019-06-15T02:52:50.562Z,9.60
2019-06-15T02:55:19.015Z,9.17
2019-06-15T02:57:47.381Z,9.50
2019-06-15T03:00:17.772Z,8.73
2019-06-15T03:02:46.475Z,9.03
2019-06-15T03:05:14.752Z,9.80
2019-06-15T03:07:43.118Z,11.17
2019-06-15T03:10:11.649Z,10.70
2019-06-15T03:12:40.409Z,12.23
2019-06-15T03:15:08.759Z,9.20
2019-06-15T03:17:37.070Z,10.03
2019-06-15T03:20:08.607Z,9.37
2019-06-15T03:22:36.908Z,9.50
2019-06-15T03:25:06.735Z,12.67
2019-06-15T03:27:35.058Z,11.87
2019-06-15T03:30:04.424Z,9.30
2019-06-15T03:32:32.735Z,11.17
2019-06-15T03:35:00.987Z,8.97
2019-06-15T03:37:29.289Z,11.27
2019-06-15T03:39:57.572Z,9.80
2019-06-15T03:42:25.871Z,9.43
2019-06-15T03:44:54.153Z,8.30
2019-06-15T03:47:22.827Z,9.77
2019-06-15T03:49:51.494Z,10.07
2019-06-15T03:52:19.794Z,9.33
2019-06-15T03:54:48.068Z,10.63
2019-06-15T03:57:16.371Z,9.67
2019-06-15T03:59:44.654Z,10.60
2019-06-15T04:02:12.964Z,14.57
2019-06-15T04:04:41.267Z,11.47
2019-06-15T04:07:09.558Z,12.13
2019-06-15T04:09:37.850Z,11.57
2019-06-15T04:12:06.164Z,12.30
2019-06-15T04:14:34.454Z,12.13
2019-06-15T04:17:02.747Z,12.07
2019-06-15T04:19:31.047Z,12.17
2019-06-15T04:21:59.339Z,12.97
2019-06-15T04:24:27.651Z,13.53
2019-06-15T04:26:56.170Z,10.73
2019-06-15T04:29:24.478Z,11.80
2019-06-15T04:31:52.780Z,12.50
2019-06-15T04:34:21.097Z,12.30
2019-06-15T04:36:49.384Z,12.53
2019-06-15T04:39:17.713Z,13.23
2019-06-15T04:41:45.985Z,11.47
2019-06-15T04:44:14.303Z,12.27
2019-06-15T04:46:42.585Z,16.30
2019-06-15T04:49:10.891Z,15.20
2019-06-15T04:51:39.176Z,14.60
2019-06-15T04:54:07.479Z,15.50
2019-06-15T04:56:50.052Z,14.07
2019-06-15T04:59:05.791Z,13.90
2019-06-15T05:01:34.076Z,16.47
2019-06-15T05:04:02.384Z,13.97
2019-06-15T05:06:32.313Z,17.33
2019-06-15T05:09:00.625Z,17.70
2019-06-15T05:11:28.915Z,16.20
2019-06-15T05:13:57.207Z,17.17
2019-06-15T05:16:25.498Z,21.03
2019-06-15T05:18:53.794Z,24.87
2019-06-15T05:21:22.137Z,19.20
2019-06-15T05:23:50.628Z,20.90
2019-06-15T05:26:18.919Z,21.57
2019-06-15T05:28:47.218Z,22.80
2019-06-15T05:31:15.517Z,23.07
2019-06-15T05:33:43.807Z,22.90
2019-06-15T05:36:12.181Z,22.23
2019-06-15T05:38:40.463Z,22.33
2019-06-15T05:41:08.766Z,23.97
2019-06-15T05:43:37.044Z,22.33
2019-06-15T05:46:05.414Z,24.37
2019-06-15T05:48:33.703Z,20.70
2019-06-15T05:51:02.003Z,21.80
2019-06-15T05:53:30.296Z,20.93
2019-06-15T05:55:58.600Z,21.97
2019-06-15T05:58:26.887Z,21.83
2019-06-15T06:00:55.195Z,22.30
2019-06-15T06:03:23.487Z,22.07
2019-06-15T06:05:51.801Z,23.13
2019-06-15T06:08:20.329Z,21.17
2019-06-15T06:10:48.872Z,20.83
2019-06-15T06:13:17.171Z,20.90
2019-06-15T06:15:45.462Z,19.60
2019-06-15T06:18:13.947Z,16.13
2019-06-15T06:20:42.247Z,16.67
2019-06-15T06:23:10.538Z,15.00
2019-06-15T06:25:38.833Z,17.97
2019-06-15T06:28:07.113Z,15.67
2019-06-15T06:30:35.420Z,14.90
2019-06-15T06:33:03.721Z,17.70
2019-06-15T06:35:32.005Z,16.53
2019-06-15T06:38:00.303Z,15.90
2019-06-15T06:40:28.591Z,15.90
2019-06-15T06:42:56.912Z,17.57
2019-06-15T06:45:25.265Z,16.03
2019-06-15T06:47:53.568Z,15.50
2019-06-15T06:50:22.025Z,17.10
2019-06-15T06:52:50.321Z,16.40
2019-06-15T06:55:18.647Z,16.97
2019-06-15T06:57:52.537Z,14.47
2019-06-15T07:00:17.273Z,13.00
2019-06-15T07:02:45.579Z,14.30
2019-06-15T07:05:13.860Z,8.97
2019-06-15T07:07:42.180Z,11.20
2019-06-15T07:10:11.092Z,8.70
2019-06-15T07:12:39.377Z,9.63
2019-06-15T07:15:08.492Z,8.43
2019-06-15T07:17:36.785Z,7.60
2019-06-15T07:20:09.538Z,7.07
2019-06-15T07:22:37.831Z,7.10
2019-06-15T07:25:07.918Z,7.20
2019-06-15T07:27:36.226Z,6.20
2019-06-15T07:30:10.393Z,5.57
2019-06-15T07:32:38.998Z,10.43
2019-06-15T07:35:07.824Z,5.77
2019-06-15T07:37:36.115Z,8.10
2019-06-15T07:40:06.443Z,5.00
2019-06-15T07:42:34.731Z,5.67
2019-06-15T07:45:03.683Z,5.40
2019-06-15T07:47:31.982Z,6.80
2019-06-15T07:50:00.264Z,8.53
2019-06-15T07:52:28.540Z,10.30
2019-06-15T07:54:56.838Z,5.07
2019-06-15T07:57:25.115Z,7.33
2019-06-15T07:59:53.408Z,5.77
2019-06-15T08:02:21.682Z,5.03
2019-06-15T08:04:49.979Z,5.17
2019-06-15T08:07:18.327Z,6.10
2019-06-15T08:09:46.620Z,6.53
2019-06-15T08:12:14.904Z,7.00
2019-06-15T08:14:43.188Z,5.93
2019-06-15T08:17:11.535Z,7.87
2019-06-15T08:19:39.834Z,5.70
2019-06-15T08:22:08.114Z,5.13
2019-06-15T08:24:36.415Z,3.27
2019-06-15T08:27:04.860Z,2.90
2019-06-15T08:29:33.156Z,4.23
2019-06-15T08:32:01.437Z,2.87
2019-06-15T08:34:29.729Z,2.57
2019-06-15T08:36:58.013Z,2.40
2019-06-15T08:39:26.314Z,2.20
2019-06-15T08:41:56.869Z,2.60
2019-06-15T08:44:24.864Z,3.13
2019-06-15T08:46:53.146Z,1.97
2019-06-15T08:49:21.455Z,2.03
2019-06-15T08:51:49.733Z,1.67
2019-06-15T08:54:18.070Z,1.77
2019-06-15T08:56:46.306Z,1.57
2019-06-15T08:59:14.689Z,1.47
2019-06-15T09:01:43.216Z,2.40
2019-06-15T09:04:11.507Z,2.40
2019-06-15T09:06:39.802Z,1.60
2019-06-15T09:09:08.090Z,1.70
2019-06-15T09:11:36.641Z,1.60
2019-06-15T09:14:05.096Z,1.50
2019-06-15T09:16:33.456Z,2.80
2019-06-15T09:19:01.733Z,2.80
2019-06-15T09:21:30.026Z,2.80
2019-06-15T09:23:58.305Z,1.10
2019-06-15T09:26:26.604Z,0.90
2019-06-15T09:29:10.011Z,1.23
2019-06-15T09:31:24.901Z,1.50
2019-06-15T09:33:53.181Z,1.10
2019-06-15T09:36:21.498Z,1.20
2019-06-15T09:38:49.763Z,1.47
2019-06-15T09:41:18.067Z,1.37
2019-06-15T09:43:46.347Z,4.47
2019-06-15T09:46:14.651Z,2.73
2019-06-15T09:48:42.931Z,1.07
2019-06-15T09:51:11.230Z,1.17
2019-06-15T09:53:39.501Z,1.10
2019-06-15T09:56:07.858Z,1.17
2019-06-15T09:58:36.142Z,2.30
2019-06-15T10:01:04.508Z,0.97
2019-06-15T10:03:32.784Z,1.53
2019-06-15T10:06:01.082Z,1.30
2019-06-15T10:08:29.361Z,1.50
2019-06-15T10:10:57.660Z,1.57
2019-06-15T10:13:25.936Z,1.53
2019-06-15T10:15:54.235Z,1.17
2019-06-15T10:18:22.522Z,1.40
2019-06-15T10:20:50.823Z,1.43
2019-06-15T10:23:19.121Z,2.63
2019-06-15T10:25:50.252Z,1.33
2019-06-15T10:28:17.411Z,2.47
2019-06-15T10:30:45.676Z,2.27
2019-06-15T10:33:13.985Z,1.23
2019-06-15T10:35:42.317Z,1.60
2019-06-15T10:38:10.688Z,1.27
2019-06-15T10:40:38.963Z,1.23
2019-06-15T10:43:07.501Z,1.53
2019-06-15T10:45:35.781Z,1.30
2019-06-15T10:48:04.147Z,2.23
2019-06-15T10:50:32.430Z,5.93
2019-06-15T10:53:00.726Z,1.50
2019-06-15T10:55:29.009Z,1.53
2019-06-15T10:57:57.307Z,5.10
2019-06-15T11:00:25.664Z,3.00
2019-06-15T11:02:53.964Z,1.43
2019-06-15T11:05:22.468Z,2.93
2019-06-15T11:07:50.785Z,2.07
2019-06-15T11:10:55.672Z,1.73
2019-06-15T11:13:23.968Z,1.60
2019-06-15T11:15:52.246Z,1.60
2019-06-15T11:18:20.594Z,1.57
2019-06-15T11:20:48.879Z,3.07
2019-06-15T11:23:17.177Z,1.70
2019-06-15T11:25:45.456Z,5.60
2019-06-15T11:28:13.750Z,1.53
2019-06-15T11:30:42.023Z,2.00
2019-06-15T11:33:10.341Z,4.77
2019-06-15T11:35:38.606Z,1.33
2019-06-15T11:38:06.972Z,1.70
2019-06-15T11:40:35.252Z,7.47
2019-06-15T11:43:03.555Z,1.70
2019-06-15T11:45:31.844Z,1.60
2019-06-15T11:48:00.386Z,1.40
2019-06-15T11:50:28.667Z,1.50
2019-06-15T11:52:56.981Z,1.63
2019-06-15T11:55:38.717Z,2.97
2019-06-15T11:57:55.250Z,2.60
2019-06-15T12:00:31.641Z,1.63
2019-06-15T12:02:57.002Z,1.77
2019-06-15T12:05:25.287Z,2.80
2019-06-15T12:07:53.567Z,1.53
2019-06-15T12:10:21.868Z,4.40
2019-06-15T12:12:50.462Z,1.70
2019-06-15T12:15:18.785Z,2.10
2019-06-15T12:17:47.044Z,2.00
2019-06-15T12:20:15.418Z,2.87
2019-06-15T12:22:43.702Z,1.80
2019-06-15T12:25:12.072Z,2.37
2019-06-15T12:27:40.408Z,1.80
2019-06-15T12:30:09.550Z,2.83
2019-06-15T12:32:37.835Z,1.50
2019-06-15T12:35:09.784Z,1.80
2019-06-15T12:37:38.067Z,2.27
2019-06-15T12:40:06.525Z,1.80
2019-06-15T12:42:34.980Z,1.83
2019-06-15T12:45:03.241Z,3.87
2019-06-15T12:47:31.545Z,2.13
2019-06-15T12:50:00.865Z,1.93
2019-06-15T12:52:32.052Z,2.60
2019-06-15T12:55:00.333Z,2.03
2019-06-15T12:57:28.616Z,2.30
2019-06-15T12:59:56.923Z,1.90
2019-06-15T13:02:25.202Z,2.80
2019-06-15T13:04:53.528Z,2.93
2019-06-15T13:07:21.801Z,2.43
2019-06-15T13:09:50.081Z,2.00
2019-06-15T13:12:20.124Z,2.10
2019-06-15T13:14:48.335Z,2.03
2019-06-15T13:17:16.642Z,2.53
2019-06-15T13:19:44.909Z,2.77
2019-06-15T13:22:13.242Z,2.57
2019-06-15T13:24:41.484Z,2.90
2019-06-15T13:27:09.777Z,3.20
2019-06-15T13:29:38.064Z,3.27
2019-06-15T13:32:06.633Z,2.53
2019-06-15T13:34:34.914Z,4.53
2019-06-15T13:37:03.279Z,2.30
2019-06-15T13:39:31.554Z,2.37
2019-06-15T13:41:59.844Z,5.47
2019-06-15T13:44:28.122Z,2.57
2019-06-15T13:46:56.426Z,5.57
2019-06-15T13:49:24.703Z,2.50
2019-06-15T13:51:52.984Z,2.57
2019-06-15T13:54:21.278Z,2.40
2019-06-15T13:56:49.563Z,2.43
2019-06-15T13:59:17.848Z,3.07
2019-06-15T14:01:46.147Z,2.93
2019-06-15T14:04:14.424Z,2.07
2019-06-15T14:06:42.702Z,2.27
2019-06-15T14:09:10.993Z,3.20
2019-06-15T14:11:39.281Z,2.60
2019-06-15T14:14:07.658Z,2.50
2019-06-15T14:16:35.931Z,4.23
2019-06-15T14:19:04.306Z,2.50
2019-06-15T14:21:32.610Z,2.47
2019-06-15T14:24:00.915Z,2.60
2019-06-15T14:26:29.190Z,2.77
2019-06-15T14:28:57.895Z,4.17
2019-06-15T14:31:26.230Z,3.50
2019-06-15T14:33:54.538Z,5.43
2019-06-15T14:36:22.798Z,2.63
2019-06-15T14:38:59.541Z,2.70
2019-06-15T14:41:27.857Z,3.77
2019-06-15T14:43:56.154Z,2.63
2019-06-15T14:46:24.438Z,3.37
2019-06-15T14:48:52.742Z,2.80
2019-06-15T14:51:21.030Z,3.13
2019-06-15T14:53:55.451Z,5.93
2019-06-15T14:56:19.348Z,4.57
2019-06-15T14:58:47.659Z,2.83
2019-06-15T15:01:16.794Z,3.97
2019-06-15T15:03:47.250Z,4.53
2019-06-15T15:06:17.190Z,3.60
2019-06-15T15:08:47.048Z,4.73
2019-06-15T15:11:17.071Z,4.57
2019-06-15T15:13:47.196Z,3.77
2019-06-15T15:16:17.614Z,2.60
2019-06-15T15:18:46.433Z,2.43
2019-06-15T15:21:16.584Z,3.03
2019-06-15T15:23:46.395Z,4.53
2019-06-15T15:26:16.974Z,5.20
2019-06-15T15:28:47.166Z,4.90
2019-06-15T15:31:17.182Z,2.37
2019-06-15T15:33:47.415Z,3.13
2019-06-15T15:36:16.890Z,7.20
2019-06-15T15:38:46.879Z,2.50
2019-06-15T15:41:17.149Z,2.50
2019-06-15T15:43:46.289Z,4.27
2019-06-15T15:46:16.482Z,2.93
2019-06-15T15:48:46.920Z,2.77
2019-06-15T15:51:17.104Z,5.87
2019-06-15T15:53:46.741Z,3.97
2019-06-15T15:56:17.024Z,2.83
2019-06-15T15:58:47.148Z,12.90
2019-06-15T16:01:17.121Z,2.90
2019-06-15T16:03:47.583Z,5.10
2019-06-15T16:06:15.332Z,2.63
2019-06-15T16:08:46.697Z,4.37
2019-06-15T16:11:16.089Z,3.23
2019-06-15T16:13:45.943Z,4.53
2019-06-15T16:16:16.203Z,3.63
2019-06-15T16:18:46.310Z,2.57
2019-06-15T16:21:16.670Z,4.97
2019-06-15T16:23:46.273Z,2.43
2019-06-15T16:26:16.589Z,5.80
2019-06-15T16:28:46.096Z,2.60
2019-06-15T16:31:17.787Z,3.00
2019-06-15T16:33:46.565Z,2.97
2019-06-15T16:36:14.342Z,4.13
2019-06-15T16:38:43.436Z,2.87
2019-06-15T16:41:11.744Z,3.57
2019-06-15T16:43:40.065Z,8.50
2019-06-15T16:46:08.330Z,14.43
2019-06-15T16:48:36.618Z,7.27
2019-06-15T16:51:06.712Z,19.73
2019-06-15T16:53:37.287Z,4.23
2019-06-15T16:56:06.105Z,7.30
2019-06-15T16:58:36.376Z,6.73
2019-06-15T17:01:06.508Z,5.53
2019-06-15T17:03:36.607Z,4.33
2019-06-15T17:06:07.069Z,4.87
2019-06-15T17:08:36.855Z,3.00
2019-06-15T17:11:06.765Z,2.60
2019-06-15T17:13:36.988Z,5.17
2019-06-15T17:16:06.144Z,7.70
2019-06-15T17:18:36.457Z,3.00
2019-06-15T17:21:06.930Z,3.00
2019-06-15T17:23:34.610Z,3.20
2019-06-15T17:26:02.906Z,3.17
2019-06-15T17:28:31.178Z,3.47
2019-06-15T17:30:59.500Z,3.37
2019-06-15T17:33:37.223Z,3.03
2019-06-15T17:36:02.783Z,3.73
2019-06-15T17:38:27.772Z,3.70
2019-06-15T17:40:57.137Z,2.97
2019-06-15T17:43:26.833Z,5.83
2019-06-15T17:45:56.489Z,4.83
2019-06-15T17:48:24.953Z,13.67
2019-06-15T17:50:53.246Z,3.57
2019-06-15T17:53:23.506Z,2.83
2019-06-15T17:55:51.784Z,2.70
2019-06-15T17:58:20.105Z,4.73
2019-06-15T18:00:48.622Z,3.47
2019-06-15T18:03:17.618Z,6.83
2019-06-15T18:05:48.042Z,5.10
2019-06-15T18:08:16.768Z,3.50
2019-06-15T18:10:47.537Z,4.10
2019-06-15T18:13:16.896Z,2.27
2019-06-15T18:15:47.660Z,5.20
2019-06-15T18:18:16.845Z,2.43
2019-06-15T18:20:45.631Z,4.10
2019-06-15T18:23:17.003Z,2.93
2019-06-15T18:25:46.589Z,4.03
2019-06-15T18:28:17.115Z,5.63
2019-06-15T18:30:46.458Z,3.47
2019-06-15T18:33:16.318Z,3.43
2019-06-15T18:35:47.059Z,5.10
2019-06-15T18:38:14.405Z,4.00
2019-06-15T18:40:44.759Z,5.80
2019-06-15T18:43:13.050Z,3.50
2019-06-15T18:45:41.328Z,5.00
2019-06-15T18:48:09.634Z,3.27
2019-06-15T18:50:40.514Z,3.23
2019-06-15T18:53:08.876Z,4.37
2019-06-15T18:55:37.159Z,4.70
2019-06-15T18:58:05.823Z,4.43
2019-06-15T19:00:36.822Z,4.67
2019-06-15T19:03:06.854Z,3.60
2019-06-15T19:05:37.241Z,6.47
2019-06-15T19:08:06.556Z,2.80
2019-06-15T19:10:36.792Z,3.10
2019-06-15T19:13:07.535Z,4.77
2019-06-15T19:15:37.274Z,11.73
2019-06-15T19:18:07.446Z,3.27
2019-06-15T19:20:37.184Z,3.17
2019-06-15T19:23:06.903Z,3.80
2019-06-15T19:25:36.423Z,3.00
2019-06-15T19:28:05.117Z,3.30
2019-06-15T19:30:33.487Z,4.17
2019-06-15T19:33:01.759Z,3.20
2019-06-15T19:35:30.076Z,3.43
2019-06-15T19:37:58.347Z,4.77
2019-06-15T19:40:26.843Z,6.83
2019-06-15T19:42:57.002Z,4.57
2019-06-15T19:45:26.748Z,3.57
2019-06-15T19:47:55.127Z,5.97
2019-06-15T19:50:23.414Z,5.77
2019-06-15T19:52:51.764Z,3.53
2019-06-15T19:55:20.084Z,3.50
2019-06-15T19:57:48.342Z,3.77
2019-06-15T20:00:18.254Z,3.47
2019-06-15T20:02:48.113Z,4.37
2019-06-15T20:05:16.667Z,3.87
2019-06-15T20:07:46.633Z,3.20
2019-06-15T20:10:15.470Z,3.63
2019-06-15T20:12:43.758Z,5.27
2019-06-15T20:15:16.709Z,4.43
2019-06-15T20:17:46.131Z,4.07
2019-06-15T20:20:14.720Z,4.63
2019-06-15T20:22:42.986Z,2.97
2019-06-15T20:25:11.352Z,4.93
2019-06-15T20:27:39.639Z,3.63
2019-06-15T20:30:08.566Z,3.20
2019-06-15T20:32:37.032Z,3.53
2019-06-15T20:35:16.505Z,5.77
2019-06-15T20:37:37.341Z,3.20
2019-06-15T20:40:08.669Z,3.40
2019-06-15T20:42:37.195Z,8.23
2019-06-15T20:45:09.544Z,5.07
2019-06-15T20:47:39.732Z,7.63
2019-06-15T20:50:08.398Z,5.70
2019-06-15T20:52:36.961Z,5.33
2019-06-15T20:55:06.881Z,5.30
2019-06-15T20:57:35.231Z,3.30
2019-06-15T21:00:07.433Z,5.10
2019-06-15T21:02:36.316Z,4.17
2019-06-15T21:05:08.741Z,3.07
2019-06-15T21:07:37.052Z,10.23
2019-06-15T21:10:09.280Z,3.30
2019-06-15T21:12:37.855Z,3.60
2019-06-15T21:15:07.937Z,4.40
2019-06-15T21:17:37.116Z,4.27
2019-06-15T21:20:08.693Z,4.10
2019-06-15T21:22:37.820Z,3.67
2019-06-15T21:25:07.564Z,7.33
2019-06-15T21:27:36.853Z,6.40
2019-06-15T21:30:09.318Z,4.03
2019-06-15T21:32:37.646Z,4.77
2019-06-15T21:35:06.764Z,5.03
2019-06-15T21:37:37.108Z,6.07
2019-06-15T21:40:06.717Z,3.50
2019-06-15T21:42:36.224Z,5.37
2019-06-15T21:45:07.539Z,5.33
2019-06-15T21:47:37.203Z,7.83
2019-06-15T21:50:09.429Z,4.40
2019-06-15T21:52:37.720Z,5.33
2019-06-15T21:55:07.597Z,4.30
2019-06-15T21:57:36.522Z,4.60
2019-06-15T22:00:12.483Z,4.97
2019-06-15T22:02:40.781Z,5.60
2019-06-15T22:05:09.187Z,9.23
2019-06-15T22:07:37.492Z,5.60
2019-06-15T22:10:07.198Z,5.70
2019-06-15T22:12:36.479Z,5.33
2019-06-15T22:15:09.147Z,8.00
2019-06-15T22:17:37.443Z,5.23
2019-06-15T22:20:06.959Z,5.17
2019-06-15T22:22:36.447Z,4.80
2019-06-15T22:25:06.916Z,6.67
2019-06-15T22:27:36.202Z,6.03
2019-06-15T22:30:07.524Z,6.27
2019-06-15T22:32:36.020Z,5.37
2019-06-15T22:35:07.126Z,6.13
2019-06-15T22:37:35.945Z,4.40
2019-06-15T22:40:08.425Z,5.57
2019-06-15T22:42:37.078Z,8.97
2019-06-15T22:45:07.072Z,5.50
2019-06-15T22:47:36.257Z,8.30
2019-06-15T22:50:07.040Z,6.73
2019-06-15T22:52:36.481Z,7.50
2019-06-15T22:55:07.093Z,5.23
2019-06-15T22:57:37.123Z,4.13
2019-06-15T23:00:07.576Z,6.03
2019-06-15T23:02:36.357Z,3.73
2019-06-15T23:05:06.499Z,5.17
2019-06-15T23:07:36.307Z,5.77
2019-06-15T23:10:07.169Z,4.53
2019-06-15T23:12:37.293Z,3.20
2019-06-15T23:15:08.432Z,3.80
2019-06-15T23:17:37.493Z,7.37
2019-06-15T23:20:07.494Z,5.67
2019-06-15T23:22:35.800Z,3.07
2019-06-15T23:25:06.138Z,3.93
2019-06-15T23:27:34.569Z,6.50
2019-06-15T23:30:06.587Z,8.03
2019-06-15T23:32:34.136Z,7.47
2019-06-15T23:35:02.433Z,4.50
2019-06-15T23:37:30.706Z,8.50
2019-06-15T23:40:17.159Z,5.63
2019-06-15T23:42:46.499Z,6.80
2019-06-15T23:45:16.703Z,5.80
2019-06-15T23:47:46.639Z,4.40
2019-06-15T23:50:16.997Z,6.43
2019-06-15T23:52:46.952Z,4.67
2019-06-15T23:55:16.480Z,5.57
2019-06-15T23:57:46.537Z,6.67
